Weather at Kyustendil Heliport

Public forecast

Using degrees Celsius for public forecast. Weather courtesy of forecast.io.

Closest aviation weather report (METAR) to Kyustendil Heliport

Closest report is Sofia Airport, 41.0 nm (76.0 km) NE.

2024/05/21 08:00 (retrieved 14 minutes ago)

LBSF 210800Z 11017KT 9999 FEW035 SCT061 18/10 Q1017 NOSIG

Closest aviation forecast (TAF) to Kyustendil Heliport

Closest forecast is Sofia Airport, 41.0 nm (76.0 km) NE.

2024/05/21 06:18 (retrieved 2 hours ago)

TAF LBSF 210500Z 2106/2206 11014KT 9999 SCT020 BKN050 TEMPO 2112/2117 5000 TSRA FEW030CB BKN040 BECMG 2120/2122 VRB04KT